createdAt,value
2024-02-28T00:00:42.030Z,99649.59
2024-02-28T00:03:08.712Z,99652.28
2024-02-28T00:05:35.328Z,99649.34
2024-02-28T00:08:01.887Z,99645.84
2024-02-28T00:10:28.430Z,99646.88
2024-02-28T00:12:55.069Z,99642.06
2024-02-28T00:15:21.763Z,99652.28
2024-02-28T00:17:48.368Z,99656.31
2024-02-28T00:20:15.321Z,99654.94
2024-02-28T00:22:43.625Z,99650.66
2024-02-28T00:25:12.258Z,99649.88
2024-02-28T00:27:38.896Z,99657.34
2024-02-28T00:30:07.897Z,99659.22
2024-02-28T00:32:34.646Z,99661.84
2024-02-28T00:35:01.313Z,99663.44
2024-02-28T00:37:28.082Z,99669.34
2024-02-28T00:39:54.858Z,99666.94
2024-02-28T00:42:21.528Z,99667.22
2024-02-28T00:44:48.140Z,99669.13
2024-02-28T00:47:14.742Z,99672.34
2024-02-28T00:49:41.296Z,99678.50
2024-02-28T00:52:07.851Z,99672.03
2024-02-28T00:54:34.448Z,99677.16
2024-02-28T00:57:01.099Z,99683.31
2024-02-28T00:59:27.787Z,99679.28
2024-02-28T01:01:54.389Z,99688.09
2024-02-28T01:04:21.008Z,99688.63
2024-02-28T01:06:47.747Z,99691.28
2024-02-28T01:09:14.509Z,99693.41
2024-02-28T01:11:41.188Z,99688.28
2024-02-28T01:14:07.740Z,99696.09
2024-02-28T01:16:34.622Z,99700.13
2024-02-28T01:19:01.209Z,99700.19
2024-02-28T01:21:27.946Z,99698.31
2024-02-28T01:23:54.597Z,99702.94
2024-02-28T01:26:23.221Z,99698.41
2024-02-28T01:28:51.615Z,99704.88
2024-02-28T01:31:18.182Z,99697.13
2024-02-28T01:33:44.800Z,99694.16
2024-02-28T01:36:13.113Z,99703.59
2024-02-28T01:38:39.695Z,99691.53
2024-02-28T01:41:06.661Z,99700.69
2024-02-28T01:43:33.759Z,99694.22
2024-02-28T01:46:04.577Z,99690.47
2024-02-28T01:48:31.422Z,99697.72
2024-02-28T01:50:58.516Z,99700.41
2024-02-28T01:53:25.317Z,99706.06
2024-02-28T01:55:53.052Z,99702.31
2024-02-28T01:58:20.664Z,99698.84
2024-02-28T02:00:48.421Z,99705.00
2024-02-28T02:03:15.124Z,99700.19
2024-02-28T02:05:43.640Z,99698.03
2024-02-28T02:08:10.381Z,99704.75
2024-02-28T02:10:36.942Z,99710.03
2024-02-28T02:13:09.481Z,99711.00
2024-02-28T02:15:36.205Z,99712.56
2024-02-28T02:18:03.464Z,99716.53
2024-02-28T02:20:33.719Z,99719.25
2024-02-28T02:23:01.120Z,99723.00
2024-02-28T02:25:27.702Z,99722.44
2024-02-28T02:27:54.295Z,99723.47
2024-02-28T02:30:20.952Z,99718.09
2024-02-28T02:32:47.636Z,99722.91
2024-02-28T02:35:14.290Z,99719.09
2024-02-28T02:37:46.917Z,99715.00
2024-02-28T02:40:13.658Z,99716.84
2024-02-28T02:42:40.259Z,99716.84
2024-02-28T02:45:07.318Z,99718.72
2024-02-28T02:47:33.914Z,99719.00
2024-02-28T02:50:00.532Z,99720.31
2024-02-28T02:52:27.157Z,99724.38
2024-02-28T02:54:53.757Z,99731.88
2024-02-28T02:57:21.027Z,99729.69
2024-02-28T02:59:47.616Z,99728.09
2024-02-28T03:02:14.150Z,99723.22
2024-02-28T03:04:40.747Z,99720.88
2024-02-28T03:07:07.346Z,99727.13
2024-02-28T03:09:35.037Z,99730.66
2024-02-28T03:12:01.656Z,99726.69
2024-02-28T03:14:28.396Z,99725.13
2024-02-28T03:16:55.020Z,99727.59
2024-02-28T03:19:22.012Z,99725.22
2024-02-28T03:21:48.599Z,99731.13
2024-02-28T03:24:15.305Z,99735.91
2024-02-28T03:26:41.982Z,99739.72
2024-02-28T03:29:08.541Z,99744.78
2024-02-28T03:31:35.185Z,99752.50
2024-02-28T03:34:01.932Z,99749.47
2024-02-28T03:36:29.733Z,99752.06
2024-02-28T03:38:56.313Z,99758.16
2024-02-28T03:41:23.143Z,99758.13
2024-02-28T03:43:49.790Z,99765.91
2024-02-28T03:46:16.426Z,99764.28
2024-02-28T03:48:43.001Z,99766.09
2024-02-28T03:51:09.622Z,99761.75
2024-02-28T03:53:36.451Z,99761.81
2024-02-28T03:56:04.180Z,99764.00
2024-02-28T03:58:30.748Z,99763.38
2024-02-28T04:00:57.438Z,99765.28
2024-02-28T04:03:24.060Z,99765.03
2024-02-28T04:05:50.701Z,99767.00
2024-02-28T04:08:17.245Z,99773.22
2024-02-28T04:10:43.870Z,99768.41
2024-02-28T04:13:10.572Z,99778.13
2024-02-28T04:15:38.693Z,99775.50
2024-02-28T04:18:05.888Z,99784.09
2024-02-28T04:20:32.559Z,99789.47
2024-02-28T04:22:59.174Z,99789.72
2024-02-28T04:25:25.750Z,99780.25
2024-02-28T04:27:52.457Z,99784.22
2024-02-28T04:30:19.402Z,99786.66
2024-02-28T04:32:46.048Z,99784.00
2024-02-28T04:35:12.760Z,99796.31
2024-02-28T04:37:39.378Z,99790.91
2024-02-28T04:40:07.950Z,99787.16
2024-02-28T04:42:34.711Z,99786.13
2024-02-28T04:45:01.314Z,99779.97
2024-02-28T04:47:33.679Z,99788.53
2024-02-28T04:50:07.020Z,99798.59
2024-02-28T04:52:34.626Z,99790.72
2024-02-28T04:55:01.943Z,99803.47
2024-02-28T04:57:28.650Z,99804.41
2024-02-28T04:59:55.497Z,99805.22
2024-02-28T05:02:26.937Z,99806.88
2024-02-28T05:04:53.729Z,99801.34
2024-02-28T05:07:20.307Z,99803.00
2024-02-28T05:09:47.103Z,99818.06
2024-02-28T05:12:13.827Z,99822.88
2024-02-28T05:14:40.409Z,99815.84
2024-02-28T05:17:07.021Z,99810.91
2024-02-28T05:19:33.636Z,99811.69
2024-02-28T05:22:02.191Z,99823.72
2024-02-28T05:24:28.869Z,99822.16
2024-02-28T05:26:55.449Z,99816.91
2024-02-28T05:29:21.998Z,99818.22
2024-02-28T05:31:48.595Z,99831.31
2024-02-28T05:34:15.202Z,99826.66
2024-02-28T05:36:42.032Z,99842.66
2024-02-28T05:39:09.418Z,99841.38
2024-02-28T05:41:35.982Z,99846.22
2024-02-28T05:44:02.528Z,99847.03
2024-02-28T05:46:29.263Z,99849.41
2024-02-28T05:48:55.914Z,99849.44
2024-02-28T05:51:23.668Z,99847.59
2024-02-28T05:53:50.440Z,99852.44
2024-02-28T05:56:18.117Z,99855.53
2024-02-28T05:58:46.047Z,99859.91
2024-02-28T06:01:16.011Z,99860.28
2024-02-28T06:03:42.709Z,99853.34
2024-02-28T06:06:09.268Z,99869.28
2024-02-28T06:08:41.559Z,99865.25
2024-02-28T06:11:09.123Z,99862.91
2024-02-28T06:13:35.690Z,99860.84
2024-02-28T06:16:03.127Z,99869.38
2024-02-28T06:18:34.440Z,99894.31
2024-02-28T06:21:01.991Z,99897.03
2024-02-28T06:23:29.744Z,99900.94
2024-02-28T06:25:57.764Z,99903.22
2024-02-28T06:28:24.455Z,99916.47
2024-02-28T06:30:51.197Z,99918.16
2024-02-28T06:33:17.990Z,99915.53
2024-02-28T06:35:44.584Z,99922.94
2024-02-28T06:38:11.133Z,99926.84
2024-02-28T06:40:37.920Z,99927.56
2024-02-28T06:43:05.184Z,99934.94
2024-02-28T06:45:31.935Z,99932.19
2024-02-28T06:47:59.217Z,99936.47
2024-02-28T06:50:25.812Z,99934.84
2024-02-28T06:52:54.996Z,99927.34
2024-02-28T06:55:22.151Z,99935.91
2024-02-28T06:57:49.198Z,99934.19
2024-02-28T07:00:17.516Z,99934.16
2024-02-28T07:02:44.334Z,99938.47
2024-02-28T07:05:11.176Z,99939.97
2024-02-28T07:07:37.740Z,99934.06
2024-02-28T07:10:05.724Z,99939.34
2024-02-28T07:12:32.989Z,99938.72
2024-02-28T07:14:59.825Z,99946.94
2024-02-28T07:17:26.440Z,99947.22
2024-02-28T07:19:52.994Z,99942.34
2024-02-28T07:22:19.821Z,99960.16
2024-02-28T07:24:46.401Z,99951.75
2024-02-28T07:27:13.051Z,99952.16
2024-02-28T07:29:39.671Z,99947.28
2024-02-28T07:32:06.454Z,99956.38
2024-02-28T07:34:33.483Z,99946.66
2024-02-28T07:37:00.187Z,99947.94
2024-02-28T07:39:26.964Z,99950.91
2024-02-28T07:41:56.381Z,99930.66
2024-02-28T07:44:23.794Z,99943.06
2024-02-28T07:46:52.228Z,99951.59
2024-02-28T07:49:19.689Z,99953.13
2024-02-28T07:51:46.779Z,99968.03
2024-02-28T07:54:13.640Z,99958.53
2024-02-28T07:56:40.290Z,99957.25
2024-02-28T07:59:06.980Z,99948.78
2024-02-28T08:01:34.578Z,99956.66
2024-02-28T08:04:03.301Z,99946.50
2024-02-28T08:06:30.375Z,99961.75
2024-02-28T08:08:56.993Z,99963.06
2024-02-28T08:11:24.510Z,99962.72
2024-02-28T08:13:51.108Z,99968.25
2024-02-28T08:16:17.797Z,99972.97
2024-02-28T08:18:44.372Z,99980.69
2024-02-28T08:21:10.945Z,99983.38
2024-02-28T08:23:37.510Z,99984.50
2024-02-28T08:26:04.958Z,99982.97
2024-02-28T08:28:31.628Z,99983.03
2024-02-28T08:30:59.603Z,99988.53
2024-02-28T08:33:26.452Z,99983.25
2024-02-28T08:35:53.336Z,99981.72
2024-02-28T08:38:19.921Z,99984.47
2024-02-28T08:40:46.882Z,99978.03
2024-02-28T08:43:13.877Z,99977.47
2024-02-28T08:45:40.694Z,99974.31
2024-02-28T08:48:08.654Z,99969.34
2024-02-28T08:50:35.547Z,99973.03
2024-02-28T08:53:03.264Z,99975.34
2024-02-28T08:55:30.405Z,99979.19
2024-02-28T08:57:57.206Z,99981.38
2024-02-28T09:00:24.077Z,99982.50
2024-02-28T09:02:50.788Z,99975.13
2024-02-28T09:05:17.563Z,99990.25
2024-02-28T09:07:44.307Z,99994.09
2024-02-28T09:10:12.269Z,99985.81
2024-02-28T09:12:39.308Z,99999.25
2024-02-28T09:15:06.618Z,99998.44
2024-02-28T09:17:33.269Z,100006.03
2024-02-28T09:20:02.344Z,100006.03
2024-02-28T09:22:29.143Z,100003.91
2024-02-28T09:24:55.970Z,100011.41
2024-02-28T09:27:22.820Z,100008.34
2024-02-28T09:29:49.405Z,100014.00
2024-02-28T09:32:16.284Z,100018.34
2024-02-28T09:34:43.022Z,100012.22
2024-02-28T09:37:09.852Z,100009.59
2024-02-28T09:39:39.911Z,100009.41
2024-02-28T09:42:08.113Z,100016.91
2024-02-28T09:44:35.833Z,100022.34
2024-02-28T09:47:02.606Z,100026.44
2024-02-28T09:49:32.049Z,100017.56
2024-02-28T09:52:00.626Z,100025.56
2024-02-28T09:54:27.425Z,100038.25
2024-02-28T09:56:54.658Z,100029.28
2024-02-28T09:59:24.943Z,100033.41
2024-02-28T10:01:59.215Z,100037.19
2024-02-28T10:04:28.794Z,100043.88
2024-02-28T10:06:55.524Z,100050.09
2024-02-28T10:09:22.172Z,100056.13
2024-02-28T10:11:48.837Z,100063.16
2024-02-28T10:14:20.154Z,100067.47
2024-02-28T10:16:46.787Z,100069.22
2024-02-28T10:19:14.062Z,100057.53
2024-02-28T10:21:40.780Z,100062.25
2024-02-28T10:24:07.595Z,100060.88
2024-02-28T10:26:39.534Z,100052.34
2024-02-28T10:29:08.812Z,100056.97
2024-02-28T10:31:36.690Z,100050.91
2024-02-28T10:34:05.189Z,100050.13
2024-02-28T10:36:34.029Z,100063.09
2024-02-28T10:39:02.124Z,100059.38
2024-02-28T10:41:29.931Z,100064.28
2024-02-28T10:43:56.681Z,100069.16
2024-02-28T10:46:35.404Z,100060.31
2024-02-28T10:49:03.801Z,100059.91
2024-02-28T10:51:37.897Z,100058.63
2024-02-28T10:54:12.818Z,100061.88
2024-02-28T10:56:42.303Z,100054.97
2024-02-28T10:59:14.037Z,100053.91
2024-02-28T11:01:43.602Z,100049.59
2024-02-28T11:04:12.052Z,100053.94
2024-02-28T11:06:53.403Z,100046.97
2024-02-28T11:09:29.558Z,100049.66
2024-02-28T11:11:57.055Z,100045.88
2024-02-28T11:14:26.683Z,100052.34
2024-02-28T11:17:04.160Z,100044.28
2024-02-28T11:19:35.958Z,100042.44
2024-02-28T11:22:04.955Z,100053.50
2024-02-28T11:24:33.752Z,100053.50
2024-02-28T11:27:00.478Z,100053.22
2024-02-28T11:29:29.619Z,100056.72
2024-02-28T11:31:56.533Z,100046.50
2024-02-28T11:34:23.405Z,100036.81
2024-02-28T11:36:52.083Z,100035.25
2024-02-28T11:39:19.697Z,100043.16
2024-02-28T11:41:47.553Z,100037.50
2024-02-28T11:44:18.170Z,100049.09
2024-02-28T11:46:54.211Z,100036.19
2024-02-28T11:49:20.826Z,100032.44
2024-02-28T11:51:47.746Z,100041.66
2024-02-28T11:54:14.588Z,100037.41
2024-02-28T11:56:42.380Z,100026.13
2024-02-28T11:59:11.441Z,100029.09
2024-02-28T12:01:47.975Z,100021.28
2024-02-28T12:04:14.959Z,100029.91
2024-02-28T12:06:42.148Z,100031.25
2024-02-28T12:09:10.667Z,100024.53
2024-02-28T12:11:38.345Z,100025.88
2024-02-28T12:14:08.143Z,100020.47
2024-02-28T12:16:34.785Z,100019.38
2024-02-28T12:19:01.573Z,100015.06
2024-02-28T12:21:28.537Z,100014.22
2024-02-28T12:23:57.485Z,100008.84
2024-02-28T12:26:24.032Z,100005.31
2024-02-28T12:28:50.755Z,100007.16
2024-02-28T12:31:17.490Z,99998.75
2024-02-28T12:33:44.121Z,100000.84
2024-02-28T12:36:11.238Z,99992.16
2024-02-28T12:38:37.918Z,100000.25
2024-02-28T12:41:05.076Z,99997.81
2024-02-28T12:43:33.064Z,99986.75
2024-02-28T12:46:00.479Z,99992.69
2024-02-28T12:48:27.318Z,99987.22
2024-02-28T12:50:53.902Z,99982.84
2024-02-28T12:53:20.602Z,99990.31
2024-02-28T12:55:47.166Z,99981.13
2024-02-28T12:58:13.780Z,99981.59
2024-02-28T13:00:43.018Z,99977.31
2024-02-28T13:03:10.311Z,99978.84
2024-02-28T13:05:37.006Z,99972.84
2024-02-28T13:08:04.738Z,99976.19
2024-02-28T13:10:31.642Z,99967.00
2024-02-28T13:12:58.276Z,99968.59
2024-02-28T13:15:25.067Z,99964.53
2024-02-28T13:17:53.623Z,99957.69
2024-02-28T13:20:20.369Z,99944.06
2024-02-28T13:22:46.997Z,99948.81
2024-02-28T13:25:15.494Z,99943.47
2024-02-28T13:27:42.540Z,99950.47
2024-02-28T13:30:09.734Z,99948.25
2024-02-28T13:32:36.656Z,99942.25
2024-02-28T13:35:03.475Z,99938.47
2024-02-28T13:37:30.052Z,99944.38
2024-02-28T13:39:57.709Z,99930.19
2024-02-28T13:42:25.730Z,99937.69
2024-02-28T13:44:52.841Z,99927.66
2024-02-28T13:47:19.412Z,99926.75
2024-02-28T13:49:46.199Z,99923.16
2024-02-28T13:52:12.952Z,99916.78
2024-02-28T13:54:39.633Z,99904.13
2024-02-28T13:57:07.969Z,99904.09
2024-02-28T13:59:35.666Z,99898.75
2024-02-28T14:02:02.611Z,99908.53
2024-02-28T14:04:29.615Z,99899.03
2024-02-28T14:06:56.214Z,99894.44
2024-02-28T14:09:22.864Z,99900.06
2024-02-28T14:11:49.649Z,99888.28
2024-02-28T14:14:16.878Z,99889.47
2024-02-28T14:16:44.363Z,99889.09
2024-02-28T14:19:11.023Z,99890.31
2024-02-28T14:21:37.721Z,99895.19
2024-02-28T14:24:04.951Z,99894.38
2024-02-28T14:26:31.576Z,99893.44
2024-02-28T14:28:58.227Z,99893.41
2024-02-28T14:31:25.845Z,99886.66
2024-02-28T14:33:52.782Z,99887.94
2024-02-28T14:36:21.916Z,99882.97
2024-02-28T14:38:48.686Z,99885.25
2024-02-28T14:41:15.802Z,99886.84
2024-02-28T14:43:42.402Z,99881.72
2024-02-28T14:46:11.410Z,99883.94
2024-02-28T14:48:38.297Z,99883.72
2024-02-28T14:51:05.698Z,99887.84
2024-02-28T14:53:32.291Z,99898.75
2024-02-28T14:55:59.043Z,99895.06
2024-02-28T14:58:25.700Z,99891.44
2024-02-28T15:00:52.478Z,99890.00
2024-02-28T15:03:19.746Z,99893.91
2024-02-28T15:05:46.545Z,99891.63
2024-02-28T15:08:15.284Z,99887.72
2024-02-28T15:10:42.130Z,99886.50
2024-02-28T15:13:08.827Z,99893.88
2024-02-28T15:15:36.448Z,99892.84
2024-02-28T15:18:04.195Z,99886.50
2024-02-28T15:20:30.753Z,99889.22
2024-02-28T15:22:57.361Z,99890.41
2024-02-28T15:25:24.118Z,99889.69
2024-02-28T15:27:50.802Z,99888.03
2024-02-28T15:30:17.478Z,99890.66
2024-02-28T15:32:44.848Z,99889.75
2024-02-28T15:35:12.130Z,99893.28
2024-02-28T15:37:39.486Z,99885.75
2024-02-28T15:40:07.807Z,99887.13
2024-02-28T15:42:35.217Z,99895.00
2024-02-28T15:45:01.960Z,99896.16
2024-02-28T15:47:31.443Z,99900.75
2024-02-28T15:50:00.125Z,99902.53
2024-02-28T15:52:26.700Z,99900.50
2024-02-28T15:54:53.267Z,99894.13
2024-02-28T15:57:19.896Z,99892.59
2024-02-28T15:59:46.502Z,99892.34
2024-02-28T16:02:13.239Z,99900.09
2024-02-28T16:04:39.972Z,99907.78
2024-02-28T16:07:08.809Z,99895.25
2024-02-28T16:09:35.513Z,99894.38
2024-02-28T16:12:03.734Z,99878.28
2024-02-28T16:14:30.298Z,99876.34
2024-02-28T16:16:56.919Z,99881.78
2024-02-28T16:19:27.300Z,99882.38
2024-02-28T16:21:55.257Z,99884.94
2024-02-28T16:24:22.348Z,99896.72
2024-02-28T16:26:49.095Z,99889.03
2024-02-28T16:29:15.720Z,99898.47
2024-02-28T16:31:44.530Z,99892.47
2024-02-28T16:34:11.164Z,99892.59
2024-02-28T16:36:38.011Z,99899.56
2024-02-28T16:39:04.675Z,99903.34
2024-02-28T16:41:31.339Z,99900.59
2024-02-28T16:43:58.741Z,99908.13
2024-02-28T16:46:25.636Z,99901.09
2024-02-28T16:48:52.373Z,99901.09
2024-02-28T16:51:20.640Z,99903.91
2024-02-28T16:53:47.465Z,99894.56
2024-02-28T16:56:14.046Z,99909.44
2024-02-28T16:58:44.155Z,99912.03
2024-02-28T17:01:11.303Z,99915.31
2024-02-28T17:03:38.203Z,99899.97
2024-02-28T17:06:06.239Z,99913.75
2024-02-28T17:08:36.235Z,99916.16
2024-02-28T17:11:04.521Z,99918.56
2024-02-28T17:13:31.486Z,99908.84
2024-02-28T17:16:03.845Z,99910.97
2024-02-28T17:18:32.104Z,99918.22
2024-02-28T17:20:59.929Z,99915.75
2024-02-28T17:23:26.689Z,99924.31
2024-02-28T17:25:56.774Z,99923.75
2024-02-28T17:28:23.659Z,99929.59
2024-02-28T17:30:50.259Z,99923.97
2024-02-28T17:33:17.152Z,99922.59
2024-02-28T17:35:45.115Z,99923.13
2024-02-28T17:38:11.768Z,99919.13
2024-02-28T17:40:38.349Z,99924.19
2024-02-28T17:43:05.499Z,99930.09
2024-02-28T17:45:32.381Z,99925.78
2024-02-28T17:47:59.470Z,99926.84
2024-02-28T17:50:26.241Z,99919.63
2024-02-28T17:52:52.958Z,99923.41
2024-02-28T17:55:19.698Z,99922.88
2024-02-28T17:57:47.577Z,99917.97
2024-02-28T18:00:14.579Z,99919.84
2024-02-28T18:02:42.340Z,99923.25
2024-02-28T18:05:10.419Z,99916.28
2024-02-28T18:07:37.292Z,99918.41
2024-02-28T18:10:08.166Z,99911.13
2024-02-28T18:12:35.018Z,99905.75
2024-02-28T18:15:01.706Z,99908.97
2024-02-28T18:17:29.418Z,99905.19
2024-02-28T18:19:56.129Z,99901.13
2024-02-28T18:22:22.669Z,99904.84
2024-02-28T18:24:49.361Z,99907.22
2024-02-28T18:27:15.970Z,99910.94
2024-02-28T18:29:42.832Z,99911.44
2024-02-28T18:32:09.764Z,99901.72
2024-02-28T18:34:36.413Z,99911.38
2024-02-28T18:37:03.318Z,99907.00
2024-02-28T18:39:30.028Z,99911.25
2024-02-28T18:41:59.366Z,99902.59
2024-02-28T18:44:26.426Z,99909.00
2024-02-28T18:46:53.024Z,99915.88
2024-02-28T18:49:19.841Z,99907.19
2024-02-28T18:51:46.755Z,99917.34
2024-02-28T18:54:13.360Z,99912.44
2024-02-28T18:56:40.023Z,99914.28
2024-02-28T18:59:06.641Z,99923.63
2024-02-28T19:01:33.318Z,99920.75
2024-02-28T19:04:00.317Z,99923.88
2024-02-28T19:06:27.361Z,99928.03
2024-02-28T19:08:53.985Z,99924.41
2024-02-28T19:11:21.048Z,99929.13
2024-02-28T19:13:47.803Z,99926.63
2024-02-28T19:16:15.063Z,99913.44
2024-02-28T19:18:42.995Z,99909.28
2024-02-28T19:21:09.712Z,99902.69
2024-02-28T19:23:38.106Z,99909.84
2024-02-28T19:26:05.019Z,99918.13
2024-02-28T19:28:31.570Z,99923.47
2024-02-28T19:31:01.200Z,99914.38
2024-02-28T19:33:28.180Z,99920.72
2024-02-28T19:35:54.908Z,99930.28
2024-02-28T19:38:21.349Z,99934.19
2024-02-28T19:40:47.815Z,99940.41
2024-02-28T19:43:14.351Z,99935.13
2024-02-28T19:45:40.884Z,99935.53
2024-02-28T19:48:08.441Z,99931.72
2024-02-28T19:50:34.996Z,99937.56
2024-02-28T19:53:02.034Z,99942.06
2024-02-28T19:55:28.475Z,99922.44
2024-02-28T19:57:55.339Z,99925.03
2024-02-28T20:00:21.994Z,99922.28
2024-02-28T20:02:49.246Z,99917.88
2024-02-28T20:05:16.969Z,99925.78
2024-02-28T20:07:44.679Z,99917.19
2024-02-28T20:10:12.195Z,99913.16
2024-02-28T20:12:39.019Z,99925.13
2024-02-28T20:15:06.789Z,99924.56
2024-02-28T20:17:33.365Z,99918.16
2024-02-28T20:19:59.829Z,99923.03
2024-02-28T20:22:26.267Z,99923.03
2024-02-28T20:24:52.737Z,99917.34
2024-02-28T20:27:19.198Z,99910.06
2024-02-28T20:29:45.677Z,99914.84
2024-02-28T20:32:12.148Z,99922.84
2024-02-28T20:34:39.263Z,99910.53
2024-02-28T20:37:05.864Z,99912.63
2024-02-28T20:39:32.518Z,99910.06
2024-02-28T20:41:58.954Z,99902.69
2024-02-28T20:44:27.667Z,99903.34
2024-02-28T20:46:54.139Z,99895.75
2024-02-28T20:49:20.666Z,99894.56
2024-02-28T20:51:47.233Z,99890.91
2024-02-28T20:54:13.741Z,99894.75
2024-02-28T20:56:41.349Z,99889.47
2024-02-28T20:59:07.789Z,99898.66
2024-02-28T21:01:34.360Z,99874.91
2024-02-28T21:04:02.928Z,99882.44
2024-02-28T21:06:30.332Z,99879.50
2024-02-28T21:08:56.954Z,99874.63
2024-02-28T21:11:27.574Z,99877.56
2024-02-28T21:13:55.426Z,99876.41
2024-02-28T21:16:22.773Z,99877.72
2024-02-28T21:18:52.330Z,99882.25
2024-02-28T21:21:19.421Z,99886.81
2024-02-28T21:23:45.978Z,99883.78
2024-02-28T21:26:12.533Z,99887.53
2024-02-28T21:28:39.001Z,99892.66
2024-02-28T21:31:05.621Z,99886.47
2024-02-28T21:33:32.256Z,99892.66
2024-02-28T21:35:58.753Z,99876.91
2024-02-28T21:38:25.289Z,99885.25
2024-02-28T21:40:51.744Z,99874.06
2024-02-28T21:43:19.075Z,99876.59
2024-02-28T21:45:45.566Z,99877.50
2024-02-28T21:48:14.871Z,99872.22
2024-02-28T21:50:43.834Z,99868.50
2024-02-28T21:53:10.469Z,99873.91
2024-02-28T21:55:37.196Z,99869.69
2024-02-28T21:58:03.742Z,99863.28
2024-02-28T22:00:30.367Z,99861.16
2024-02-28T22:02:56.949Z,99863.03
2024-02-28T22:05:23.494Z,99854.19
2024-02-28T22:07:49.924Z,99860.84
2024-02-28T22:10:17.081Z,99858.41
2024-02-28T22:12:45.181Z,99858.41
2024-02-28T22:15:11.888Z,99856.31
2024-02-28T22:17:38.400Z,99852.56
2024-02-28T22:20:05.214Z,99842.34
2024-02-28T22:22:31.657Z,99849.19
2024-02-28T22:24:58.118Z,99846.75
2024-02-28T22:27:24.662Z,99838.97
2024-02-28T22:29:51.557Z,99846.75
2024-02-28T22:32:18.033Z,99844.34
2024-02-28T22:34:44.575Z,99847.25
2024-02-28T22:37:11.126Z,99841.38
2024-02-28T22:39:37.636Z,99836.88
2024-02-28T22:42:05.270Z,99835.25
2024-02-28T22:44:31.826Z,99831.50
2024-02-28T22:46:58.362Z,99825.09
2024-02-28T22:49:24.880Z,99831.81
2024-02-28T22:51:51.464Z,99825.66
2024-02-28T22:54:23.998Z,99827.28
2024-02-28T22:56:50.916Z,99822.16
2024-02-28T22:59:18.120Z,99817.06
2024-02-28T23:01:45.194Z,99825.09
2024-02-28T23:04:11.864Z,99817.06
2024-02-28T23:06:38.685Z,99817.06
2024-02-28T23:09:06.225Z,99807.44
2024-02-28T23:11:32.732Z,99809.06
2024-02-28T23:14:02.430Z,99802.88
2024-02-28T23:16:29.987Z,99803.94
2024-02-28T23:18:56.931Z,99798.34
2024-02-28T23:21:23.850Z,99791.13
2024-02-28T23:23:50.457Z,99783.91
2024-02-28T23:26:16.936Z,99784.47
2024-02-28T23:28:43.421Z,99784.47
2024-02-28T23:31:10.012Z,99780.75
2024-02-28T23:33:36.574Z,99772.16
2024-02-28T23:36:03.200Z,99769.97
2024-02-28T23:38:29.633Z,99778.50
2024-02-28T23:40:56.126Z,99773.63
2024-02-28T23:43:22.616Z,99770.38
2024-02-28T23:45:49.084Z,99779.16
2024-02-28T23:48:15.630Z,99773.72
2024-02-28T23:50:48.694Z,99772.84
2024-02-28T23:53:15.735Z,99775.44
2024-02-28T23:55:42.197Z,99771.53
2024-02-28T23:58:08.924Z,99772.53
